createdAt,value
2019-02-17T00:02:12.274Z,55.85
2019-02-17T00:04:36.687Z,55.93
2019-02-17T00:07:01.119Z,56.09
2019-02-17T00:09:25.524Z,57.10
2019-02-17T00:11:49.977Z,56.97
2019-02-17T00:14:14.457Z,56.37
2019-02-17T00:16:38.976Z,56.46
2019-02-17T00:19:03.394Z,57.45
2019-02-17T00:21:27.833Z,56.78
2019-02-17T00:23:52.240Z,57.61
2019-02-17T00:26:16.690Z,57.41
2019-02-17T00:28:41.113Z,58.09
2019-02-17T00:31:05.677Z,57.64
2019-02-17T00:33:30.127Z,57.25
2019-02-17T00:35:54.538Z,57.61
2019-02-17T00:38:18.991Z,57.45
2019-02-17T00:40:43.571Z,57.34
2019-02-17T00:43:08.011Z,57.39
2019-02-17T00:45:32.494Z,57.44
2019-02-17T00:47:56.903Z,57.58
2019-02-17T00:50:21.342Z,57.77
2019-02-17T00:52:45.759Z,57.00
2019-02-17T00:55:10.334Z,58.10
2019-02-17T00:57:34.752Z,59.13
2019-02-17T00:59:59.193Z,59.63
2019-02-17T01:02:23.606Z,59.45
2019-02-17T01:04:48.108Z,59.27
2019-02-17T01:07:12.524Z,58.63
2019-02-17T01:09:36.956Z,58.14
2019-02-17T01:12:01.451Z,58.50
2019-02-17T01:14:25.984Z,58.11
2019-02-17T01:16:50.398Z,58.04
2019-02-17T01:19:14.817Z,57.97
2019-02-17T01:21:39.266Z,57.79
2019-02-17T01:24:03.676Z,57.75
2019-02-17T01:26:28.142Z,57.75
2019-02-17T01:28:52.552Z,57.89
2019-02-17T01:31:16.987Z,57.86
2019-02-17T01:33:41.399Z,57.47
2019-02-17T01:36:05.985Z,57.20
2019-02-17T01:38:30.413Z,57.44
2019-02-17T01:40:54.830Z,57.27
2019-02-17T01:43:19.337Z,57.41
2019-02-17T01:45:43.751Z,57.33
2019-02-17T01:48:08.183Z,57.58
2019-02-17T01:50:32.592Z,57.89
2019-02-17T01:52:57.030Z,58.00
2019-02-17T01:55:22.024Z,57.63
2019-02-17T01:57:46.457Z,57.85
2019-02-17T02:00:13.890Z,58.25
2019-02-17T02:02:38.344Z,58.18
2019-02-17T02:05:02.758Z,59.25
2019-02-17T02:07:27.274Z,58.99
2019-02-17T02:09:51.694Z,58.46
2019-02-17T02:12:16.219Z,58.56
2019-02-17T02:14:40.777Z,58.95
2019-02-17T02:17:05.265Z,59.16
2019-02-17T02:19:29.692Z,59.04
2019-02-17T02:21:54.100Z,58.67
2019-02-17T02:24:18.542Z,58.64
2019-02-17T02:26:42.960Z,58.70
2019-02-17T02:29:07.401Z,58.53
2019-02-17T02:31:31.813Z,58.75
2019-02-17T02:33:56.257Z,58.71
2019-02-17T02:36:20.679Z,58.96
2019-02-17T02:38:45.093Z,58.65
2019-02-17T02:41:09.524Z,58.47
2019-02-17T02:43:33.935Z,58.52
2019-02-17T02:45:58.370Z,58.41
2019-02-17T02:48:22.854Z,58.31
2019-02-17T02:50:47.273Z,58.50
2019-02-17T02:53:11.686Z,58.71
2019-02-17T02:55:36.116Z,59.21
2019-02-17T02:58:00.553Z,58.82
2019-02-17T03:00:25.025Z,58.85
2019-02-17T03:02:49.467Z,58.83
2019-02-17T03:05:13.961Z,58.82
2019-02-17T03:07:38.469Z,58.64
2019-02-17T03:10:02.951Z,58.75
2019-02-17T03:12:27.365Z,58.94
2019-02-17T03:14:51.780Z,59.06
2019-02-17T03:17:16.237Z,59.17
2019-02-17T03:19:40.640Z,59.26
2019-02-17T03:22:05.147Z,59.51
2019-02-17T03:24:29.558Z,59.01
2019-02-17T03:26:54.001Z,59.34
2019-02-17T03:29:18.407Z,59.00
2019-02-17T03:31:42.821Z,58.95
2019-02-17T03:34:07.254Z,59.00
2019-02-17T03:36:31.663Z,59.25
2019-02-17T03:38:56.108Z,59.20
2019-02-17T03:41:20.519Z,59.62
2019-02-17T03:43:44.961Z,59.37
2019-02-17T03:46:09.377Z,59.71
2019-02-17T03:48:33.809Z,59.34
2019-02-17T03:50:58.224Z,59.22
2019-02-17T03:53:22.659Z,59.64
2019-02-17T03:55:47.076Z,59.74
2019-02-17T03:58:11.570Z,60.19
2019-02-17T04:00:36.000Z,59.85
2019-02-17T04:03:00.483Z,59.80
2019-02-17T04:05:24.917Z,59.67
2019-02-17T04:07:49.315Z,59.63
2019-02-17T04:10:13.938Z,59.22
2019-02-17T04:12:38.335Z,59.20
2019-02-17T04:15:02.785Z,59.09
2019-02-17T04:17:27.273Z,59.04
2019-02-17T04:19:51.722Z,59.31
2019-02-17T04:22:16.150Z,59.53
2019-02-17T04:24:40.628Z,59.32
2019-02-17T04:27:05.147Z,60.00
2019-02-17T04:29:29.558Z,59.82
2019-02-17T04:31:54.001Z,59.92
2019-02-17T04:34:18.414Z,59.87
2019-02-17T04:36:42.855Z,60.13
2019-02-17T04:39:07.256Z,60.22
2019-02-17T04:41:31.692Z,60.11
2019-02-17T04:43:56.103Z,60.07
2019-02-17T04:46:20.517Z,60.02
2019-02-17T04:48:44.939Z,59.78
2019-02-17T04:51:09.419Z,59.68
2019-02-17T04:53:33.846Z,59.46
2019-02-17T04:55:58.259Z,60.23
2019-02-17T04:58:22.700Z,60.20
2019-02-17T05:00:47.115Z,60.17
2019-02-17T05:03:11.559Z,60.26
2019-02-17T05:05:35.955Z,60.31
2019-02-17T05:08:00.387Z,59.95
2019-02-17T05:10:24.793Z,60.27
2019-02-17T05:12:49.201Z,60.57
2019-02-17T05:15:13.707Z,60.75
2019-02-17T05:17:38.120Z,60.87
2019-02-17T05:20:02.557Z,61.27
2019-02-17T05:22:26.967Z,61.26
2019-02-17T05:24:51.379Z,60.78
2019-02-17T05:27:15.802Z,60.90
2019-02-17T05:29:40.218Z,61.17
2019-02-17T05:32:04.794Z,60.98
2019-02-17T05:34:29.207Z,60.48
2019-02-17T05:36:53.648Z,60.45
2019-02-17T05:39:18.055Z,60.32
2019-02-17T05:41:42.491Z,60.73
2019-02-17T05:44:06.912Z,60.61
2019-02-17T05:46:31.342Z,61.04
2019-02-17T05:48:55.753Z,60.63
2019-02-17T05:51:20.204Z,60.35
2019-02-17T05:53:44.599Z,60.37
2019-02-17T05:56:09.000Z,60.42
2019-02-17T05:58:33.445Z,60.37
2019-02-17T06:01:03.694Z,60.69
2019-02-17T06:03:23.977Z,60.89
2019-02-17T06:05:48.380Z,61.27
2019-02-17T06:08:12.814Z,61.20
2019-02-17T06:10:37.248Z,61.11
2019-02-17T06:13:01.677Z,61.09
2019-02-17T06:15:26.086Z,61.16
2019-02-17T06:17:50.515Z,60.95
2019-02-17T06:20:14.918Z,60.86
2019-02-17T06:22:39.354Z,61.09
2019-02-17T06:25:03.831Z,61.44
2019-02-17T06:27:28.235Z,61.43
2019-02-17T06:29:52.682Z,61.41
2019-02-17T06:32:17.092Z,61.58
2019-02-17T06:34:41.520Z,61.77
2019-02-17T06:37:05.931Z,61.87
2019-02-17T06:39:30.372Z,61.68
2019-02-17T06:41:54.782Z,61.63
2019-02-17T06:44:19.226Z,61.69
2019-02-17T06:46:45.279Z,61.66
2019-02-17T06:49:09.694Z,61.44
2019-02-17T06:51:34.119Z,61.47
2019-02-17T06:53:58.532Z,61.41
2019-02-17T06:56:27.545Z,61.49
2019-02-17T06:58:51.950Z,61.55
2019-02-17T07:01:24.420Z,61.80
2019-02-17T07:03:42.558Z,62.31
2019-02-17T07:06:11.421Z,61.90
2019-02-17T07:08:35.833Z,61.86
2019-02-17T07:11:00.277Z,61.68
2019-02-17T07:13:24.687Z,62.38
2019-02-17T07:15:49.141Z,62.16
2019-02-17T07:18:13.576Z,62.43
2019-02-17T07:20:37.978Z,62.23
2019-02-17T07:23:02.424Z,62.16
2019-02-17T07:25:29.945Z,61.98
2019-02-17T07:27:52.975Z,62.00
2019-02-17T07:30:17.389Z,61.72
2019-02-17T07:32:41.830Z,61.81
2019-02-17T07:35:07.179Z,62.17
2019-02-17T07:37:33.726Z,61.78
2019-02-17T07:39:57.732Z,61.98
2019-02-17T07:42:22.171Z,61.89
2019-02-17T07:44:46.587Z,62.75
2019-02-17T07:47:11.018Z,62.87
2019-02-17T07:49:35.429Z,63.12
2019-02-17T07:51:59.836Z,62.34
2019-02-17T07:54:24.280Z,62.00
2019-02-17T07:56:48.707Z,61.76
2019-02-17T07:59:13.117Z,61.49
2019-02-17T08:01:45.100Z,61.73
2019-02-17T08:04:03.665Z,61.86
2019-02-17T08:06:28.076Z,61.69
2019-02-17T08:08:52.518Z,61.46
2019-02-17T08:11:16.926Z,61.61
2019-02-17T08:13:41.358Z,61.48
2019-02-17T08:16:05.777Z,61.41
2019-02-17T08:18:30.195Z,61.33
2019-02-17T08:20:54.668Z,61.65
2019-02-17T08:23:19.040Z,61.59
2019-02-17T08:25:43.490Z,61.41
2019-02-17T08:28:07.913Z,61.08
2019-02-17T08:30:32.346Z,61.10
2019-02-17T08:32:56.750Z,61.16
2019-02-17T08:35:21.204Z,60.81
2019-02-17T08:37:45.656Z,61.26
2019-02-17T08:40:10.902Z,61.22
2019-02-17T08:42:35.379Z,61.43
2019-02-17T08:44:59.859Z,61.11
2019-02-17T08:47:24.373Z,60.78
2019-02-17T08:49:48.757Z,60.50
2019-02-17T08:52:13.199Z,60.69
2019-02-17T08:54:37.616Z,60.93
2019-02-17T08:57:02.082Z,60.57
2019-02-17T08:59:26.480Z,60.67
2019-02-17T09:01:50.957Z,60.52
2019-02-17T09:04:15.438Z,60.28
2019-02-17T09:06:39.887Z,60.03
2019-02-17T09:09:05.718Z,60.30
2019-02-17T09:11:30.152Z,59.64
2019-02-17T09:13:54.555Z,59.15
2019-02-17T09:16:18.996Z,58.93
2019-02-17T09:18:43.435Z,59.27
2019-02-17T09:21:07.852Z,59.51
2019-02-17T09:23:32.309Z,59.03
2019-02-17T09:25:56.722Z,59.03
2019-02-17T09:28:21.242Z,58.27
2019-02-17T09:30:45.659Z,57.81
2019-02-17T09:33:10.091Z,57.90
2019-02-17T09:35:34.536Z,57.99
2019-02-17T09:37:58.979Z,57.70
2019-02-17T09:40:23.470Z,57.43
2019-02-17T09:42:47.960Z,57.19
2019-02-17T09:45:16.339Z,56.93
2019-02-17T09:47:40.747Z,56.74
2019-02-17T09:50:09.401Z,56.64
2019-02-17T09:52:33.815Z,56.12
2019-02-17T09:54:58.287Z,55.73
2019-02-17T09:57:22.743Z,55.31
2019-02-17T09:59:47.154Z,55.07
2019-02-17T10:02:11.625Z,54.79
2019-02-17T10:04:36.047Z,54.60
2019-02-17T10:07:00.463Z,54.25
2019-02-17T10:09:24.906Z,54.14
2019-02-17T10:11:49.343Z,53.38
2019-02-17T10:14:13.816Z,53.49
2019-02-17T10:16:38.311Z,52.61
2019-02-17T10:19:02.802Z,52.11
2019-02-17T10:21:27.243Z,51.60
2019-02-17T10:23:51.662Z,51.13
2019-02-17T10:26:16.141Z,50.61
2019-02-17T10:28:42.532Z,50.59
2019-02-17T10:31:06.777Z,50.56
2019-02-17T10:33:31.200Z,49.89
2019-02-17T10:35:55.664Z,49.43
2019-02-17T10:38:20.092Z,48.74
2019-02-17T10:40:44.546Z,48.16
2019-02-17T10:43:08.972Z,47.70
2019-02-17T10:45:33.479Z,47.30
2019-02-17T10:47:57.907Z,46.91
2019-02-17T10:50:22.371Z,46.72
2019-02-17T10:52:47.030Z,46.45
2019-02-17T10:55:12.927Z,45.88
2019-02-17T10:57:37.440Z,46.38
2019-02-17T11:00:01.897Z,45.53
2019-02-17T11:02:27.888Z,44.86
2019-02-17T11:04:52.377Z,44.78
2019-02-17T11:07:16.909Z,44.26
2019-02-17T11:09:41.387Z,44.20
2019-02-17T11:12:05.915Z,44.12
2019-02-17T11:14:30.326Z,43.22
2019-02-17T11:16:54.764Z,42.81
2019-02-17T11:19:19.257Z,42.85
2019-02-17T11:21:43.710Z,41.62
2019-02-17T11:24:08.273Z,42.43
2019-02-17T11:26:32.724Z,41.72
2019-02-17T11:28:57.252Z,40.26
2019-02-17T11:31:21.675Z,38.74
2019-02-17T11:33:46.190Z,36.39
2019-02-17T11:36:10.764Z,34.33
2019-02-17T11:38:35.212Z,33.50
2019-02-17T11:40:59.633Z,31.80
2019-02-17T11:43:24.091Z,30.74
2019-02-17T11:45:48.647Z,29.30
2019-02-17T11:48:13.171Z,29.42
2019-02-17T11:50:37.601Z,27.84
2019-02-17T11:53:02.031Z,27.22
2019-02-17T11:55:26.469Z,26.51
2019-02-17T11:57:50.974Z,25.33
2019-02-17T12:00:22.263Z,26.08
2019-02-17T12:02:46.789Z,24.97
2019-02-17T12:05:11.756Z,24.91
2019-02-17T12:07:36.168Z,24.09
2019-02-17T12:10:00.617Z,23.08
2019-02-17T12:12:25.037Z,23.78
2019-02-17T12:14:49.496Z,23.30
2019-02-17T12:17:13.900Z,23.24
2019-02-17T12:19:38.359Z,22.38
2019-02-17T12:22:04.439Z,22.66
2019-02-17T12:24:30.549Z,22.64
2019-02-17T12:27:11.740Z,21.88
2019-02-17T12:29:38.479Z,20.99
2019-02-17T12:32:03.021Z,21.09
2019-02-17T12:34:27.459Z,20.84
2019-02-17T12:36:51.915Z,21.17
2019-02-17T12:39:16.342Z,21.65
2019-02-17T12:41:40.782Z,20.27
2019-02-17T12:44:05.211Z,20.24
2019-02-17T12:46:29.652Z,19.72
2019-02-17T12:48:54.065Z,19.66
2019-02-17T12:51:18.504Z,20.57
2019-02-17T12:53:42.936Z,19.87
2019-02-17T12:56:07.392Z,19.38
2019-02-17T12:58:31.806Z,19.38
2019-02-17T13:00:56.259Z,19.24
2019-02-17T13:03:28.234Z,19.38
2019-02-17T13:05:47.031Z,18.67
2019-02-17T13:08:11.491Z,18.81
2019-02-17T13:10:35.942Z,18.88
2019-02-17T13:13:00.365Z,18.61
2019-02-17T13:15:24.784Z,18.77
2019-02-17T13:17:49.312Z,18.34
2019-02-17T13:20:15.271Z,18.46
2019-02-17T13:22:39.804Z,18.76
2019-02-17T13:25:05.069Z,18.66
2019-02-17T13:27:29.532Z,18.40
2019-02-17T13:29:53.954Z,18.45
2019-02-17T13:32:18.499Z,18.18
2019-02-17T13:34:42.931Z,18.31
2019-02-17T13:37:07.380Z,18.12
2019-02-17T13:39:31.820Z,18.41
2019-02-17T13:41:56.353Z,18.55
2019-02-17T13:44:20.779Z,18.36
2019-02-17T13:46:45.242Z,18.28
2019-02-17T13:49:09.679Z,18.33
2019-02-17T13:51:34.161Z,19.04
2019-02-17T13:53:58.774Z,18.91
2019-02-17T13:56:23.269Z,19.30
2019-02-17T13:58:47.739Z,19.54
2019-02-17T14:01:12.167Z,19.37
2019-02-17T14:03:36.623Z,19.14
2019-02-17T14:06:01.019Z,19.30
2019-02-17T14:08:25.471Z,19.33
2019-02-17T14:10:49.901Z,19.77
2019-02-17T14:13:14.355Z,19.79
2019-02-17T14:15:38.769Z,19.53
2019-02-17T14:18:03.188Z,20.15
2019-02-17T14:20:27.631Z,20.16
2019-02-17T14:22:52.056Z,19.75
2019-02-17T14:25:16.522Z,20.00
2019-02-17T14:27:41.015Z,20.86
2019-02-17T14:30:08.838Z,20.29
2019-02-17T14:32:33.256Z,20.10
2019-02-17T14:34:57.679Z,19.56
2019-02-17T14:37:22.095Z,20.31
2019-02-17T14:39:46.633Z,20.93
2019-02-17T14:42:11.053Z,21.25
2019-02-17T14:44:35.513Z,21.34
2019-02-17T14:46:59.915Z,21.78
2019-02-17T14:49:24.409Z,22.95
2019-02-17T14:51:48.853Z,21.69
2019-02-17T14:54:13.363Z,21.25
2019-02-17T14:56:37.866Z,21.85
2019-02-17T14:59:02.589Z,22.42
2019-02-17T15:01:27.087Z,23.58
2019-02-17T15:03:51.511Z,24.12
2019-02-17T15:06:15.947Z,24.68
2019-02-17T15:08:40.359Z,25.00
2019-02-17T15:11:04.798Z,25.12
2019-02-17T15:13:29.221Z,26.23
2019-02-17T15:15:53.689Z,26.73
2019-02-17T15:18:18.107Z,26.68
2019-02-17T15:20:42.907Z,27.18
2019-02-17T15:23:07.336Z,28.20
2019-02-17T15:25:31.925Z,28.79
2019-02-17T15:27:56.356Z,29.14
2019-02-17T15:30:20.869Z,29.19
2019-02-17T15:32:45.284Z,29.30
2019-02-17T15:35:09.956Z,29.91
2019-02-17T15:37:34.390Z,30.38
2019-02-17T15:39:58.807Z,30.46
2019-02-17T15:42:23.346Z,31.30
2019-02-17T15:44:48.003Z,31.70
2019-02-17T15:47:12.399Z,32.31
2019-02-17T15:49:36.808Z,32.87
2019-02-17T15:52:01.268Z,33.24
2019-02-17T15:54:25.967Z,33.62
2019-02-17T15:56:50.405Z,34.17
2019-02-17T15:59:14.900Z,34.73
2019-02-17T16:01:39.329Z,34.81
2019-02-17T16:04:03.782Z,35.04
2019-02-17T16:06:28.206Z,35.49
2019-02-17T16:08:52.662Z,35.96
2019-02-17T16:11:17.085Z,36.50
2019-02-17T16:13:41.536Z,37.17
2019-02-17T16:16:06.120Z,37.11
2019-02-17T16:18:30.572Z,37.40
2019-02-17T16:20:55.016Z,37.71
2019-02-17T16:23:19.504Z,38.01
2019-02-17T16:25:44.210Z,38.16
2019-02-17T16:28:09.030Z,38.21
2019-02-17T16:30:33.482Z,38.37
2019-02-17T16:32:57.914Z,38.48
2019-02-17T16:35:22.354Z,38.69
2019-02-17T16:37:46.856Z,39.29
2019-02-17T16:40:13.894Z,39.48
2019-02-17T16:42:38.311Z,39.75
2019-02-17T16:45:02.870Z,39.74
2019-02-17T16:47:28.029Z,40.19
2019-02-17T16:49:52.487Z,40.61
2019-02-17T16:52:16.917Z,40.81
2019-02-17T16:54:41.358Z,41.06
2019-02-17T16:57:05.854Z,41.60
2019-02-17T16:59:30.321Z,41.60
2019-02-17T17:01:54.752Z,41.63
2019-02-17T17:04:19.245Z,42.31
2019-02-17T17:06:43.722Z,42.27
2019-02-17T17:09:08.880Z,42.33
2019-02-17T17:11:33.355Z,42.49
2019-02-17T17:13:57.789Z,42.50
2019-02-17T17:16:22.394Z,42.95
2019-02-17T17:18:47.036Z,42.87
2019-02-17T17:21:11.493Z,43.15
2019-02-17T17:23:35.920Z,43.41
2019-02-17T17:26:00.466Z,43.58
2019-02-17T17:28:25.907Z,43.73
2019-02-17T17:30:50.441Z,44.11
2019-02-17T17:33:14.884Z,44.14
2019-02-17T17:35:39.387Z,44.22
2019-02-17T17:38:03.929Z,44.48
2019-02-17T17:40:28.437Z,44.79
2019-02-17T17:42:52.906Z,44.85
2019-02-17T17:45:22.307Z,45.19
2019-02-17T17:47:46.764Z,45.19
2019-02-17T17:50:15.424Z,45.56
2019-02-17T17:52:39.940Z,45.70
2019-02-17T17:55:05.206Z,45.72
2019-02-17T17:57:29.673Z,45.85
2019-02-17T17:59:54.117Z,46.01
2019-02-17T18:02:18.750Z,46.17
2019-02-17T18:04:43.310Z,46.44
2019-02-17T18:07:07.772Z,46.31
2019-02-17T18:09:32.202Z,46.69
2019-02-17T18:11:56.753Z,46.92
2019-02-17T18:14:21.270Z,46.96
2019-02-17T18:16:45.699Z,47.26
2019-02-17T18:19:10.172Z,47.35
2019-02-17T18:21:34.598Z,47.59
2019-02-17T18:23:59.080Z,47.80
2019-02-17T18:26:23.599Z,48.12
2019-02-17T18:28:48.050Z,48.17
2019-02-17T18:31:12.616Z,48.13
2019-02-17T18:33:37.076Z,48.24
2019-02-17T18:36:01.644Z,48.64
2019-02-17T18:38:26.095Z,48.98
2019-02-17T18:40:50.516Z,48.78
2019-02-17T18:43:15.041Z,48.92
2019-02-17T18:45:39.475Z,49.10
2019-02-17T18:48:04.059Z,49.36
2019-02-17T18:50:28.626Z,49.78
2019-02-17T18:52:53.058Z,49.80
2019-02-17T18:55:17.585Z,49.61
2019-02-17T18:57:49.485Z,50.32
2019-02-17T19:00:25.714Z,50.43
2019-02-17T19:02:50.206Z,50.17
2019-02-17T19:05:14.773Z,50.27
2019-02-17T19:07:39.182Z,50.57
2019-02-17T19:10:05.182Z,50.98
2019-02-17T19:12:29.607Z,50.88
2019-02-17T19:14:55.488Z,50.88
2019-02-17T19:17:19.993Z,51.01
2019-02-17T19:19:44.513Z,51.39
2019-02-17T19:22:08.942Z,51.42
2019-02-17T19:24:33.425Z,51.07
2019-02-17T19:26:57.855Z,51.42
2019-02-17T19:29:22.338Z,51.92
2019-02-17T19:31:46.851Z,51.82
2019-02-17T19:34:11.268Z,52.32
2019-02-17T19:36:35.797Z,52.17
2019-02-17T19:39:00.223Z,52.43
2019-02-17T19:41:24.766Z,52.67
2019-02-17T19:43:49.261Z,52.83
2019-02-17T19:46:13.787Z,52.87
2019-02-17T19:48:38.279Z,53.12
2019-02-17T19:51:02.746Z,53.26
2019-02-17T19:53:27.248Z,53.21
2019-02-17T19:55:51.677Z,52.86
2019-02-17T19:58:16.104Z,53.50
2019-02-17T20:00:40.569Z,53.55
2019-02-17T20:03:09.911Z,53.87
2019-02-17T20:05:36.053Z,54.19
2019-02-17T20:08:00.546Z,55.25
2019-02-17T20:10:25.004Z,54.75
2019-02-17T20:12:49.421Z,54.36
2019-02-17T20:15:13.910Z,54.07
2019-02-17T20:17:38.428Z,54.79
2019-02-17T20:20:02.926Z,54.70
2019-02-17T20:22:27.380Z,54.78
2019-02-17T20:24:51.815Z,55.19
2019-02-17T20:27:16.257Z,55.15
2019-02-17T20:29:40.670Z,55.20
2019-02-17T20:32:05.189Z,55.05
2019-02-17T20:34:29.610Z,55.74
2019-02-17T20:36:54.117Z,55.03
2019-02-17T20:39:18.758Z,55.39
2019-02-17T20:41:43.192Z,55.47
2019-02-17T20:44:07.808Z,55.08
2019-02-17T20:46:32.287Z,55.38
2019-02-17T20:48:56.811Z,55.14
2019-02-17T20:51:21.314Z,55.06
2019-02-17T20:53:45.851Z,55.16
2019-02-17T20:56:10.352Z,55.25
2019-02-17T20:58:34.786Z,55.03
2019-02-17T21:00:59.316Z,55.11
2019-02-17T21:03:23.839Z,55.12
2019-02-17T21:05:48.263Z,55.22
2019-02-17T21:08:12.849Z,55.29
2019-02-17T21:10:37.345Z,55.29
2019-02-17T21:13:01.945Z,55.36
2019-02-17T21:15:26.831Z,55.25
2019-02-17T21:17:51.536Z,55.26
2019-02-17T21:20:17.774Z,55.27
2019-02-17T21:22:42.447Z,55.52
2019-02-17T21:25:12.480Z,55.53
2019-02-17T21:27:37.161Z,55.49
2019-02-17T21:30:01.777Z,55.73
2019-02-17T21:32:27.734Z,55.74
2019-02-17T21:34:52.240Z,55.81
2019-02-17T21:37:16.801Z,55.64
2019-02-17T21:39:41.375Z,55.65
2019-02-17T21:42:05.864Z,56.29
2019-02-17T21:44:30.677Z,56.11
2019-02-17T21:46:55.261Z,55.78
2019-02-17T21:49:20.260Z,56.07
2019-02-17T21:51:44.898Z,56.03
2019-02-17T21:54:09.437Z,56.05
2019-02-17T21:56:33.967Z,55.87
2019-02-17T21:58:58.630Z,56.02
2019-02-17T22:01:23.282Z,55.90
2019-02-17T22:03:47.955Z,55.54
2019-02-17T22:06:12.712Z,56.16
2019-02-17T22:08:37.195Z,55.68
2019-02-17T22:11:01.754Z,55.38
2019-02-17T22:13:26.256Z,55.65
2019-02-17T22:15:50.904Z,56.04
2019-02-17T22:18:15.456Z,56.29
2019-02-17T22:20:39.968Z,56.06
2019-02-17T22:23:04.440Z,55.86
2019-02-17T22:25:28.865Z,55.86
2019-02-17T22:27:53.311Z,55.86
2019-02-17T22:30:17.810Z,56.21
2019-02-17T22:32:42.251Z,56.29
2019-02-17T22:35:06.922Z,56.26
2019-02-17T22:37:31.360Z,56.38
2019-02-17T22:39:55.754Z,57.03
2019-02-17T22:42:20.262Z,58.24
2019-02-17T22:44:44.680Z,57.81
2019-02-17T22:47:09.095Z,57.95
2019-02-17T22:49:33.520Z,58.24
2019-02-17T22:51:58.000Z,57.48
2019-02-17T22:54:22.441Z,56.86
2019-02-17T22:56:46.861Z,57.09
2019-02-17T22:59:11.296Z,56.88
2019-02-17T23:01:35.780Z,56.60
2019-02-17T23:04:00.289Z,56.40
2019-02-17T23:06:24.774Z,57.37
2019-02-17T23:08:49.301Z,57.36
2019-02-17T23:11:14.000Z,56.86
2019-02-17T23:13:38.463Z,56.85
2019-02-17T23:16:02.844Z,56.41
2019-02-17T23:18:27.279Z,57.03
2019-02-17T23:20:51.684Z,57.32
2019-02-17T23:23:16.099Z,57.58
2019-02-17T23:25:40.504Z,56.89
2019-02-17T23:28:04.909Z,57.28
2019-02-17T23:30:29.390Z,57.10
2019-02-17T23:32:53.796Z,57.67
2019-02-17T23:35:18.210Z,57.34
2019-02-17T23:37:42.609Z,57.81
2019-02-17T23:40:11.505Z,58.38
2019-02-17T23:42:35.985Z,58.57
2019-02-17T23:45:00.417Z,57.99
2019-02-17T23:47:24.840Z,58.74
2019-02-17T23:49:49.261Z,58.60
2019-02-17T23:52:13.665Z,58.28
2019-02-17T23:54:38.094Z,58.55
2019-02-17T23:57:02.497Z,58.56
2019-02-17T23:59:26.902Z,58.27
